Time;durP1;ratioP1;P1;durP2;ratioP2;P2;SDS_P1;SDS_P2;PMS_P1;PMS_P2;Temp;Humidity;BMP_temperature;BMP_pressure;BME280_temperature;BME280_humidity;BME280_pressure;Samples;Min_cycle;Max_cycle;Signal;HPM_P1;HPM_P2
2023/12/06 00:01:21;;;;;;;3.95;2.50;;;21.50;50.60;;;;;;5041333;28;20104;-64
2023/12/06 00:03:47;;;;;;;3.53;2.30;;;21.50;50.60;;;;;;5040608;28;20021;-63
2023/12/06 00:06:12;;;;;;;3.72;2.47;;;21.50;50.60;;;;;;5039867;28;20042;-65
2023/12/06 00:08:38;;;;;;;3.22;2.35;;;21.50;50.70;;;;;;5038235;28;20040;-63
2023/12/06 00:11:04;;;;;;;3.20;2.17;;;21.50;50.70;;;;;;5040800;28;20086;-64
2023/12/06 00:13:30;;;;;;;3.10;2.30;;;21.40;50.70;;;;;;5039574;28;20932;-64
2023/12/06 00:15:56;;;;;;;3.72;2.47;;;21.40;50.70;;;;;;5037695;28;20021;-64
2023/12/06 00:18:21;;;;;;;4.53;2.58;;;21.40;50.80;;;;;;5037757;28;20028;-63
2023/12/06 00:20:47;;;;;;;3.38;2.35;;;21.40;50.80;;;;;;5036499;28;20060;-63
2023/12/06 00:23:12;;;;;;;3.58;2.30;;;21.30;50.80;;;;;;5038474;28;20029;-63
2023/12/06 00:25:38;;;;;;;2.97;2.10;;;21.30;50.80;;;;;;5039139;28;20036;-64
2023/12/06 00:28:03;;;;;;;3.25;2.17;;;21.30;50.80;;;;;;5034685;28;20036;-63
2023/12/06 00:30:29;;;;;;;3.28;1.92;;;21.30;50.90;;;;;;5039492;28;20036;-63
2023/12/06 00:32:55;;;;;;;3.30;2.13;;;21.30;50.90;;;;;;5037144;28;20085;-63
2023/12/06 00:35:20;;;;;;;2.83;2.10;;;21.20;50.90;;;;;;5043619;28;20033;-63
2023/12/06 00:37:46;;;;;;;3.20;2.35;;;21.30;51.00;;;;;;5043910;28;20024;-63
2023/12/06 00:40:12;;;;;;;3.83;2.45;;;21.20;50.90;;;;;;5042178;28;20025;-63
2023/12/06 00:42:38;;;;;;;3.50;2.10;;;21.20;51.00;;;;;;5041254;28;20105;-64
2023/12/06 00:45:04;;;;;;;3.17;2.30;;;21.20;51.00;;;;;;5042585;28;20025;-64
2023/12/06 00:47:29;;;;;;;3.33;2.17;;;21.10;51.00;;;;;;5041974;28;20064;-64
2023/12/06 00:49:55;;;;;;;2.50;1.90;;;21.10;51.10;;;;;;5043298;28;20131;-65
2023/12/06 00:52:21;;;;;;;3.33;2.20;;;21.10;51.00;;;;;;5041665;28;20033;-64
2023/12/06 00:54:48;;;;;;;2.72;1.95;;;21.10;51.00;;;;;;5041590;28;20104;-64
2023/12/06 00:57:14;;;;;;;2.70;2.00;;;21.10;51.10;;;;;;5041409;28;20871;-65
2023/12/06 00:59:40;;;;;;;3.00;1.92;;;21.10;51.10;;;;;;5040907;28;20116;-64
2023/12/06 01:02:06;;;;;;;3.05;2.28;;;21.10;51.10;;;;;;5042116;28;20120;-63
2023/12/06 01:04:35;;;;;;;2.90;1.90;;;21.00;51.10;;;;;;5042662;28;20029;-64
2023/12/06 01:07:00;;;;;;;2.78;1.88;;;21.00;51.20;;;;;;5043522;28;20068;-63
2023/12/06 01:09:26;;;;;;;3.08;1.92;;;21.00;51.20;;;;;;5042915;28;20095;-63
2023/12/06 01:11:51;;;;;;;2.90;2.00;;;21.00;51.20;;;;;;5041119;28;20029;-63
2023/12/06 01:14:17;;;;;;;2.67;1.85;;;21.00;51.30;;;;;;5042318;28;20036;-64
2023/12/06 01:16:43;;;;;;;3.20;1.90;;;21.00;51.30;;;;;;5041513;28;20431;-63
2023/12/06 01:19:09;;;;;;;2.83;1.77;;;20.90;51.30;;;;;;5041816;28;20029;-64
2023/12/06 01:21:34;;;;;;;2.97;2.03;;;20.90;51.30;;;;;;5042225;28;20481;-64
2023/12/06 01:24:00;;;;;;;2.63;1.88;;;20.90;51.30;;;;;;5040146;28;20041;-63
2023/12/06 01:26:25;;;;;;;3.05;2.00;;;20.90;51.30;;;;;;5042177;28;20056;-63
2023/12/06 01:28:51;;;;;;;2.88;2.17;;;20.90;51.40;;;;;;5040062;28;20401;-63
2023/12/06 01:31:16;;;;;;;2.67;1.90;;;20.90;51.40;;;;;;5038712;28;20029;-64
2023/12/06 01:33:42;;;;;;;3.22;2.10;;;20.90;51.50;;;;;;5040609;28;20082;-63
2023/12/06 01:36:08;;;;;;;3.63;1.83;;;20.90;51.50;;;;;;5043904;28;20086;-63
2023/12/06 01:38:33;;;;;;;3.35;1.92;;;20.80;51.40;;;;;;5043202;28;20025;-64
2023/12/06 01:40:59;;;;;;;3.22;2.05;;;20.80;51.40;;;;;;5041063;28;20056;-63
2023/12/06 01:43:25;;;;;;;2.83;1.85;;;20.80;51.50;;;;;;5037349;28;20021;-63
2023/12/06 01:45:50;;;;;;;2.92;2.00;;;20.80;51.50;;;;;;5040536;28;20018;-63
2023/12/06 01:48:18;;;;;;;2.58;1.73;;;20.80;51.50;;;;;;5039302;28;20096;-63
2023/12/06 01:50:44;;;;;;;2.90;1.80;;;20.80;51.60;;;;;;5041989;28;20033;-63
2023/12/06 01:53:10;;;;;;;2.38;1.60;;;20.80;51.60;;;;;;5038794;28;20034;-63
2023/12/06 01:55:35;;;;;;;2.78;1.83;;;20.70;51.60;;;;;;5040641;28;20025;-64
2023/12/06 01:58:01;;;;;;;2.72;1.80;;;20.70;51.60;;;;;;5038352;28;20473;-63
2023/12/06 02:00:27;;;;;;;2.70;1.80;;;20.70;51.60;;;;;;5042471;28;20495;-63
2023/12/06 02:02:53;;;;;;;2.90;1.75;;;20.70;51.60;;;;;;5041637;28;20245;-63
2023/12/06 02:05:19;;;;;;;2.45;1.60;;;20.70;51.60;;;;;;5040188;28;20029;-64
2023/12/06 02:07:45;;;;;;;2.75;1.80;;;20.70;51.60;;;;;;5040012;28;20045;-64
2023/12/06 02:10:11;;;;;;;2.63;1.77;;;20.70;51.70;;;;;;5041013;28;20032;-63
2023/12/06 02:12:36;;;;;;;2.45;1.70;;;20.60;51.60;;;;;;5039837;28;20461;-63
2023/12/06 02:15:03;;;;;;;2.30;1.63;;;20.60;52.20;;;;;;5039805;28;20337;-66
2023/12/06 02:17:30;;;;;;;2.33;1.70;;;20.60;51.70;;;;;;5041118;28;20025;-66
2023/12/06 02:19:57;;;;;;;2.20;1.55;;;20.60;51.70;;;;;;5039968;28;20472;-66
2023/12/06 02:22:24;;;;;;;2.30;1.60;;;20.60;51.70;;;;;;5040886;28;20040;-67
2023/12/06 02:24:53;;;;;;;2.20;1.45;;;20.60;51.70;;;;;;5040541;28;20033;-67
2023/12/06 02:27:20;;;;;;;2.47;1.60;;;20.60;51.70;;;;;;5068636;28;20115;-66
2023/12/06 02:29:46;;;;;;;2.55;1.70;;;20.60;51.80;;;;;;5038555;28;20547;-67
2023/12/06 02:32:12;;;;;;;2.05;1.60;;;20.50;51.70;;;;;;5039453;28;20045;-67
2023/12/06 02:34:38;;;;;;;2.20;1.50;;;20.50;51.80;;;;;;5040568;28;20481;-66
2023/12/06 02:37:07;;;;;;;2.17;1.48;;;20.50;51.80;;;;;;5042087;28;20025;-67
2023/12/06 02:39:37;;;;;;;2.20;1.40;;;20.50;51.80;;;;;;5040539;28;20037;-67
2023/12/06 02:42:03;;;;;;;2.88;1.60;;;20.50;51.90;;;;;;5039967;28;20029;-66
2023/12/06 02:44:29;;;;;;;2.60;1.75;;;20.50;51.80;;;;;;5037284;28;20102;-66
2023/12/06 02:46:55;;;;;;;2.22;1.52;;;20.50;52.30;;;;;;5042356;28;20066;-66
2023/12/06 02:49:20;;;;;;;2.38;1.50;;;20.50;51.90;;;;;;5040898;28;20021;-67
2023/12/06 02:51:46;;;;;;;2.28;1.50;;;20.50;51.90;;;;;;5041254;28;20033;-66
2023/12/06 02:54:11;;;;;;;2.28;1.73;;;20.50;51.90;;;;;;5055818;28;20116;-67
2023/12/06 02:56:37;;;;;;;2.45;1.60;;;20.40;51.80;;;;;;5040659;28;20075;-66
2023/12/06 02:59:03;;;;;;;2.13;1.42;;;20.40;51.80;;;;;;5039930;28;20116;-66
2023/12/06 03:01:28;;;;;;;2.30;1.40;;;20.40;51.90;;;;;;5039895;28;20488;-67
2023/12/06 03:03:54;;;;;;;1.83;1.30;;;20.40;51.90;;;;;;5039737;28;20033;-66
2023/12/06 03:06:19;;;;;;;1.80;1.50;;;20.40;51.90;;;;;;5038080;28;20079;-66
2023/12/06 03:08:45;;;;;;;2.47;1.42;;;20.40;51.90;;;;;;5040653;28;20056;-66
2023/12/06 03:11:10;;;;;;;2.45;1.60;;;20.40;51.90;;;;;;5039771;28;20065;-66
2023/12/06 03:13:36;;;;;;;1.95;1.40;;;20.30;51.90;;;;;;5038879;28;20660;-66
2023/12/06 03:16:02;;;;;;;2.35;1.50;;;20.40;52.00;;;;;;5040311;28;20033;-67
2023/12/06 03:18:27;;;;;;;2.00;1.30;;;20.30;51.90;;;;;;5038882;28;20025;-67
2023/12/06 03:20:53;;;;;;;1.75;1.20;;;20.40;52.00;;;;;;5040177;28;20029;-67
2023/12/06 03:23:18;;;;;;;2.00;1.30;;;20.30;52.00;;;;;;5042951;28;20068;-64
2023/12/06 03:25:44;;;;;;;2.20;1.50;;;20.30;52.00;;;;;;5040228;28;20504;-66
2023/12/06 03:28:10;;;;;;;2.17;1.40;;;20.30;52.00;;;;;;5038388;28;20060;-67
2023/12/06 03:30:35;;;;;;;2.05;1.30;;;20.30;52.10;;;;;;5039285;28;20030;-67
2023/12/06 03:33:01;;;;;;;1.77;1.30;;;20.30;52.10;;;;;;5039947;28;20032;-67
2023/12/06 03:35:26;;;;;;;1.60;1.30;;;20.30;52.00;;;;;;5040428;28;20083;-67
2023/12/06 03:37:53;;;;;;;2.20;1.50;;;20.30;52.10;;;;;;5039285;28;20029;-67
2023/12/06 03:40:19;;;;;;;2.20;1.40;;;20.20;52.00;;;;;;5039070;28;20112;-67
2023/12/06 03:42:45;;;;;;;2.03;1.30;;;20.30;52.10;;;;;;5041039;28;20120;-67
2023/12/06 03:45:12;;;;;;;1.60;1.20;;;20.30;52.10;;;;;;5038590;28;20122;-66
2023/12/06 03:47:38;;;;;;;2.00;1.35;;;20.30;52.10;;;;;;5039632;28;20032;-67
2023/12/06 03:50:05;;;;;;;1.75;1.20;;;20.20;52.10;;;;;;5039058;28;20026;-67
2023/12/06 03:52:30;;;;;;;2.30;1.50;;;20.20;52.10;;;;;;5039675;28;20037;-67
2023/12/06 03:54:56;;;;;;;1.67;1.20;;;20.20;52.10;;;;;;5036921;28;20029;-67
2023/12/06 03:57:21;;;;;;;2.17;1.50;;;20.20;52.10;;;;;;5038861;28;20083;-67
2023/12/06 03:59:47;;;;;;;1.80;1.50;;;20.20;52.10;;;;;;5035957;28;20028;-67
2023/12/06 04:02:14;;;;;;;2.15;1.40;;;20.20;52.10;;;;;;5038103;28;20421;-67
2023/12/06 04:04:39;;;;;;;2.25;1.30;;;20.20;52.10;;;;;;5038029;28;20026;-67
2023/12/06 04:07:05;;;;;;;1.92;1.30;;;20.20;52.10;;;;;;5039371;28;20441;-67
2023/12/06 04:09:31;;;;;;;1.85;1.30;;;20.20;52.20;;;;;;5035892;28;20033;-67
2023/12/06 04:11:57;;;;;;;1.45;1.10;;;20.20;52.20;;;;;;5036945;28;20029;-67
2023/12/06 04:14:22;;;;;;;1.92;1.30;;;20.20;52.20;;;;;;5035415;28;20449;-67
2023/12/06 04:16:49;;;;;;;2.20;1.40;;;20.10;52.20;;;;;;5037852;28;20029;-67
2023/12/06 04:19:15;;;;;;;1.60;1.20;;;20.10;52.20;;;;;;5040043;28;20496;-66
2023/12/06 04:21:41;;;;;;;1.90;1.10;;;20.10;52.20;;;;;;5041073;28;20469;-67
2023/12/06 04:24:07;;;;;;;1.83;1.10;;;20.10;52.30;;;;;;5045744;28;20083;-67
2023/12/06 04:26:32;;;;;;;1.35;1.00;;;20.10;52.30;;;;;;5038647;28;20089;-67
2023/12/06 04:28:58;;;;;;;1.40;1.10;;;20.10;52.30;;;;;;5036776;28;20113;-67
2023/12/06 04:31:24;;;;;;;1.20;1.00;;;20.10;52.30;;;;;;5038405;28;20388;-67
2023/12/06 04:33:50;;;;;;;1.92;1.20;;;20.10;52.40;;;;;;5069002;28;20033;-67
2023/12/06 04:36:15;;;;;;;1.70;1.10;;;20.00;52.90;;;;;;5039185;28;20480;-64
2023/12/06 04:38:41;;;;;;;1.83;1.15;;;20.00;52.40;;;;;;5039083;28;20029;-64
2023/12/06 04:41:07;;;;;;;1.50;1.00;;;20.00;52.50;;;;;;5039900;28;20021;-65
2023/12/06 04:43:34;;;;;;;1.88;1.10;;;20.00;52.50;;;;;;5038613;28;20086;-64
2023/12/06 04:45:59;;;;;;;1.30;1.02;;;20.00;52.60;;;;;;5038244;28;20022;-64
2023/12/06 04:48:25;;;;;;;1.30;0.90;;;20.00;52.60;;;;;;5037602;28;20032;-66
2023/12/06 04:50:51;;;;;;;1.30;1.00;;;19.90;52.60;;;;;;5036094;28;20032;-64
2023/12/06 04:53:17;;;;;;;1.33;0.90;;;19.90;52.60;;;;;;5037052;28;20163;-65
2023/12/06 04:55:43;;;;;;;1.60;1.10;;;19.90;52.60;;;;;;5036591;28;20124;-65
2023/12/06 04:58:09;;;;;;;1.50;1.10;;;19.90;52.60;;;;;;5037012;28;20115;-65
2023/12/06 05:00:36;;;;;;;1.75;1.10;;;19.90;52.60;;;;;;5035738;28;20025;-65
2023/12/06 05:03:02;;;;;;;2.20;1.10;;;19.90;52.70;;;;;;5038280;28;20082;-64
2023/12/06 05:05:28;;;;;;;1.17;1.00;;;19.90;52.70;;;;;;5038982;28;20255;-65
2023/12/06 05:07:55;;;;;;;1.77;1.35;;;19.90;52.70;;;;;;5036430;28;20223;-65
2023/12/06 05:10:21;;;;;;;1.30;1.08;;;19.90;52.70;;;;;;5039367;28;20040;-65
2023/12/06 05:12:47;;;;;;;1.42;1.00;;;19.90;52.70;;;;;;5038790;28;20025;-64
2023/12/06 05:15:13;;;;;;;1.85;1.10;;;19.90;52.80;;;;;;5036629;28;20040;-64
2023/12/06 05:17:39;;;;;;;1.65;1.02;;;19.90;52.70;;;;;;5041435;28;20025;-65
2023/12/06 05:20:06;;;;;;;1.33;1.00;;;19.90;52.70;;;;;;5040978;28;20021;-66
2023/12/06 05:22:32;;;;;;;1.38;0.95;;;19.80;52.70;;;;;;5059719;28;20029;-64
2023/12/06 05:24:57;;;;;;;1.70;1.10;;;19.80;52.70;;;;;;5046239;28;20366;-65
2023/12/06 05:27:23;;;;;;;1.35;0.90;;;19.80;52.80;;;;;;5043298;28;20036;-65
2023/12/06 05:29:48;;;;;;;1.13;0.95;;;19.80;52.80;;;;;;5037031;28;20481;-64
2023/12/06 05:32:14;;;;;;;1.20;0.93;;;19.80;52.80;;;;;;5041151;28;20056;-64
2023/12/06 05:34:39;;;;;;;1.65;1.15;;;19.80;52.90;;;;;;5038598;28;20029;-65
2023/12/06 05:37:05;;;;;;;1.40;1.00;;;19.80;52.90;;;;;;5040809;28;20061;-65
2023/12/06 05:39:31;;;;;;;1.10;0.90;;;19.80;52.90;;;;;;5041896;28;20496;-65
2023/12/06 05:41:57;;;;;;;1.40;1.02;;;19.80;53.00;;;;;;5039530;28;20109;-65
2023/12/06 05:44:22;;;;;;;1.27;0.90;;;19.80;53.00;;;;;;5040900;28;20392;-64
2023/12/06 05:46:48;;;;;;;1.55;1.10;;;19.80;53.00;;;;;;5042727;28;20388;-67
2023/12/06 05:49:14;;;;;;;1.30;1.10;;;19.80;53.10;;;;;;5042198;28;20033;-67
2023/12/06 05:51:39;;;;;;;1.20;0.90;;;19.80;53.10;;;;;;5040019;28;20043;-67
2023/12/06 05:54:05;;;;;;;1.35;0.93;;;19.80;53.10;;;;;;5038054;28;20078;-67
2023/12/06 05:56:31;;;;;;;1.75;1.10;;;19.80;53.10;;;;;;5041990;28;20929;-67
2023/12/06 05:58:56;;;;;;;1.80;1.10;;;19.80;53.20;;;;;;5040025;28;20021;-67
2023/12/06 06:01:22;;;;;;;1.27;0.90;;;19.80;53.10;;;;;;5040835;28;20033;-67
2023/12/06 06:03:48;;;;;;;1.40;0.98;;;19.80;53.10;;;;;;5039100;28;20604;-66
2023/12/06 06:06:14;;;;;;;1.60;1.13;;;19.70;53.10;;;;;;5041866;28;20386;-67
2023/12/06 06:08:39;;;;;;;1.55;1.05;;;19.80;53.20;;;;;;5041848;28;20148;-66
2023/12/06 06:11:05;;;;;;;1.27;0.98;;;19.70;53.20;;;;;;5040811;28;20079;-66
2023/12/06 06:13:31;;;;;;;1.00;0.90;;;19.70;53.20;;;;;;5039027;28;20025;-67
2023/12/06 06:15:57;;;;;;;1.20;0.88;;;19.70;53.20;;;;;;5038824;28;20086;-66
2023/12/06 06:18:23;;;;;;;1.30;0.90;;;19.70;53.20;;;;;;5042342;28;20022;-67
2023/12/06 06:20:48;;;;;;;1.70;1.00;;;19.70;53.20;;;;;;5055976;28;20036;-67
2023/12/06 06:23:14;;;;;;;1.23;0.90;;;19.80;53.30;;;;;;5040796;28;20092;-67
2023/12/06 06:25:40;;;;;;;1.23;0.90;;;19.80;53.30;;;;;;5037492;28;20358;-67
2023/12/06 06:28:05;;;;;;;1.20;0.90;;;19.70;53.30;;;;;;5039157;28;20030;-67
2023/12/06 06:30:31;;;;;;;2.15;1.10;;;19.70;53.30;;;;;;5036163;28;20086;-67
2023/12/06 06:32:57;;;;;;;1.42;1.10;;;19.70;53.30;;;;;;5037723;28;20024;-67
2023/12/06 06:35:22;;;;;;;1.27;0.90;;;19.70;53.80;;;;;;5039515;28;20399;-67
2023/12/06 06:37:48;;;;;;;1.80;1.15;;;19.70;53.50;;;;;;5040832;28;20021;-67
2023/12/06 06:40:14;;;;;;;1.15;0.90;;;19.70;53.50;;;;;;5038598;28;20027;-67
2023/12/06 06:42:41;;;;;;;1.38;0.90;;;19.70;53.50;;;;;;5039220;28;20033;-67
2023/12/06 06:45:10;;;;;;;1.17;0.90;;;19.70;53.50;;;;;;5036819;28;20029;-67
2023/12/06 06:47:37;;;;;;;1.55;0.93;;;19.70;53.50;;;;;;5039245;28;20071;-67
2023/12/06 06:50:06;;;;;;;1.45;0.93;;;19.70;53.50;;;;;;5042246;28;20075;-67
2023/12/06 06:52:34;;;;;;;0.75;0.68;;;19.70;53.50;;;;;;5041277;28;20032;-67
2023/12/06 06:55:00;;;;;;;1.70;1.10;;;19.70;53.50;;;;;;5040753;28;20055;-65
2023/12/06 06:57:26;;;;;;;1.33;0.90;;;19.70;53.50;;;;;;5036505;28;20036;-67
2023/12/06 06:59:51;;;;;;;1.45;1.00;;;19.70;53.50;;;;;;5038875;28;20032;-67
2023/12/06 07:02:17;;;;;;;1.00;0.85;;;19.70;53.50;;;;;;5039465;28;20449;-67
2023/12/06 07:04:46;;;;;;;1.70;1.00;;;19.70;53.50;;;;;;5040665;28;20025;-67
2023/12/06 07:07:12;;;;;;;2.00;0.80;;;19.70;53.50;;;;;;5041004;28;20087;-64
2023/12/06 07:09:37;;;;;;;2.05;1.20;;;19.70;53.50;;;;;;5039925;28;20034;-64
2023/12/06 07:12:03;;;;;;;1.90;1.10;;;19.70;53.60;;;;;;5040332;28;20029;-65
2023/12/06 07:14:29;;;;;;;1.85;1.00;;;19.70;53.50;;;;;;5039497;28;20431;-64
2023/12/06 07:16:56;;;;;;;1.92;1.10;;;19.70;53.50;;;;;;5039055;28;20449;-64
2023/12/06 07:19:22;;;;;;;1.77;1.00;;;19.70;54.10;;;;;;5038751;28;20022;-64
2023/12/06 07:21:48;;;;;;;2.30;1.10;;;19.70;53.60;;;;;;5038964;28;20024;-65
2023/12/06 07:24:13;;;;;;;1.92;1.00;;;19.70;53.60;;;;;;5040694;28;20120;-64
2023/12/06 07:26:39;;;;;;;1.48;1.00;;;19.70;53.70;;;;;;5039768;28;20512;-65
2023/12/06 07:29:05;;;;;;;1.63;0.95;;;19.60;53.60;;;;;;5040960;28;20032;-65
2023/12/06 07:31:31;;;;;;;1.85;0.98;;;19.70;53.60;;;;;;5037239;28;20032;-64
2023/12/06 07:33:57;;;;;;;1.90;0.90;;;19.70;53.60;;;;;;5038941;28;20049;-64
2023/12/06 07:36:22;;;;;;;1.30;0.90;;;19.60;53.60;;;;;;5069467;28;20032;-64
2023/12/06 07:38:48;;;;;;;2.60;1.00;;;19.70;53.70;;;;;;5036530;28;20021;-65
2023/12/06 07:41:14;;;;;;;1.92;1.10;;;19.60;53.60;;;;;;5039269;28;20107;-64
2023/12/06 07:43:40;;;;;;;1.02;0.90;;;19.70;53.70;;;;;;5038639;28;20481;-65
2023/12/06 07:46:05;;;;;;;3.42;1.33;;;19.60;53.60;;;;;;5036260;28;20383;-65
2023/12/06 07:48:33;;;;;;;2.10;1.00;;;19.60;53.60;;;;;;5039580;28;20386;-64
2023/12/06 07:50:59;;;;;;;2.88;1.20;;;19.60;53.60;;;;;;5038667;28;20397;-64
2023/12/06 07:53:25;;;;;;;1.95;1.08;;;19.60;53.60;;;;;;5038867;28;20496;-64
2023/12/06 07:55:54;;;;;;;2.63;1.30;;;19.60;53.60;;;;;;5041463;28;20025;-66
2023/12/06 07:58:23;;;;;;;3.28;1.20;;;19.60;53.70;;;;;;5040252;28;20456;-64
2023/12/06 08:00:49;;;;;;;2.53;1.25;;;19.60;53.70;;;;;;5038759;28;20025;-64
2023/12/06 08:03:15;;;;;;;2.47;1.10;;;19.60;53.70;;;;;;5037586;28;20026;-64
2023/12/06 08:05:40;;;;;;;2.30;1.13;;;19.60;53.70;;;;;;5036979;28;20141;-64
2023/12/06 08:08:06;;;;;;;2.70;1.10;;;19.60;53.60;;;;;;5036790;28;20389;-65
2023/12/06 08:10:33;;;;;;;3.28;1.48;;;19.60;53.70;;;;;;5039467;28;20460;-64
2023/12/06 08:12:59;;;;;;;3.30;1.10;;;19.60;53.70;;;;;;5039049;28;20048;-64
2023/12/06 08:15:25;;;;;;;2.28;1.17;;;19.60;53.70;;;;;;5037700;28;20545;-66
2023/12/06 08:17:51;;;;;;;2.78;1.20;;;19.60;53.70;;;;;;5041261;28;20027;-66
2023/12/06 08:20:17;;;;;;;1.77;0.88;;;19.60;53.70;;;;;;5037551;28;20025;-66
2023/12/06 08:22:42;;;;;;;1.77;0.93;;;19.60;53.70;;;;;;5038294;28;20091;-66
2023/12/06 08:25:08;;;;;;;2.92;1.20;;;19.60;53.70;;;;;;5039760;28;20029;-66
2023/12/06 08:27:34;;;;;;;2.85;1.23;;;19.60;53.70;;;;;;5045573;28;20032;-66
2023/12/06 08:30:00;;;;;;;2.58;1.25;;;19.60;53.80;;;;;;5036437;28;20033;-66
2023/12/06 08:32:26;;;;;;;2.00;1.10;;;19.60;53.70;;;;;;5036133;28;20102;-66
2023/12/06 08:34:53;;;;;;;3.00;1.10;;;19.60;53.70;;;;;;5039350;28;20338;-66
2023/12/06 08:37:19;;;;;;;2.17;1.20;;;19.60;53.70;;;;;;5038449;28;20482;-66
2023/12/06 08:39:45;;;;;;;2.42;1.17;;;19.60;53.70;;;;;;5040635;28;20087;-66
2023/12/06 08:42:17;;;;;;;1.63;1.08;;;19.60;53.70;;;;;;5038271;28;20033;-66
2023/12/06 08:44:42;;;;;;;1.98;1.10;;;19.60;53.70;;;;;;5040718;28;20025;-66
2023/12/06 08:47:12;;;;;;;2.15;1.10;;;19.60;53.70;;;;;;5036497;28;20691;-66
2023/12/06 08:49:38;;;;;;;1.52;1.00;;;19.50;53.70;;;;;;5040644;28;20080;-66
2023/12/06 08:52:07;;;;;;;2.85;1.00;;;19.60;53.80;;;;;;5039609;28;20519;-66
2023/12/06 08:54:33;;;;;;;;;;;19.60;53.70;;;;;;5039106;28;20121;-66
2023/12/06 08:56:59;;;;;;;1.80;1.08;;;19.60;53.70;;;;;;5041721;28;20000;-66
2023/12/06 08:59:24;;;;;;;2.70;1.17;;;19.50;53.70;;;;;;5043050;28;20087;-66
2023/12/06 09:01:50;;;;;;;2.05;1.10;;;19.60;53.70;;;;;;5041161;28;20100;-66
2023/12/06 09:04:15;;;;;;;2.20;1.20;;;19.50;53.70;;;;;;5044020;28;20026;-66
2023/12/06 09:06:41;;;;;;;3.00;1.10;;;19.60;53.80;;;;;;5041680;28;20457;-66
2023/12/06 09:09:07;;;;;;;2.22;1.15;;;19.60;53.80;;;;;;5040683;28;20040;-66
2023/12/06 09:11:33;;;;;;;2.25;1.20;;;19.50;53.70;;;;;;5043608;28;20033;-66
2023/12/06 09:13:59;;;;;;;3.75;1.20;;;19.50;53.70;;;;;;5041405;28;20500;-66
2023/12/06 09:16:25;;;;;;;2.20;1.08;;;19.50;53.70;;;;;;5046710;28;20029;-64
2023/12/06 09:18:50;;;;;;;2.28;1.23;;;19.50;53.70;;;;;;5039584;28;20104;-65
2023/12/06 09:21:16;;;;;;;2.35;1.20;;;19.50;53.80;;;;;;5040256;28;20469;-65
2023/12/06 09:23:42;;;;;;;2.45;1.20;;;19.50;53.70;;;;;;5041919;28;20024;-64
2023/12/06 09:26:09;;;;;;;2.33;1.25;;;19.50;53.70;;;;;;5043079;28;20440;-65
2023/12/06 09:28:35;;;;;;;2.25;1.20;;;19.50;53.70;;;;;;5041023;28;20578;-64
2023/12/06 09:31:01;;;;;;;1.98;1.20;;;19.50;53.70;;;;;;5038076;28;20033;-65
2023/12/06 09:33:26;;;;;;;3.28;1.45;;;19.50;53.80;;;;;;5040845;28;20036;-64
2023/12/06 09:35:52;;;;;;;3.03;1.30;;;19.50;53.70;;;;;;5043103;28;20033;-65
2023/12/06 09:38:18;;;;;;;2.22;1.10;;;19.50;53.80;;;;;;5041415;28;20017;-65
2023/12/06 09:40:43;;;;;;;2.85;1.30;;;19.50;53.70;;;;;;5039670;28;20038;-65
2023/12/06 09:43:11;;;;;;;2.05;1.08;;;19.50;53.70;;;;;;5041417;28;20367;-64
2023/12/06 09:45:37;;;;;;;2.20;1.20;;;19.50;53.80;;;;;;5040047;28;20029;-66
2023/12/06 09:48:04;;;;;;;2.60;1.10;;;19.50;53.70;;;;;;5041450;28;20429;-65
2023/12/06 09:50:30;;;;;;;1.63;0.98;;;19.50;53.80;;;;;;5041252;28;20030;-64
2023/12/06 09:52:56;;;;;;;2.15;1.23;;;19.50;54.30;;;;;;5041301;28;20087;-65
2023/12/06 09:55:25;;;;;;;1.95;1.05;;;19.50;53.70;;;;;;5042032;28;20060;-64
2023/12/06 09:57:52;;;;;;;1.63;1.10;;;19.50;53.80;;;;;;5042326;28;20032;-64
2023/12/06 10:00:18;;;;;;;2.03;1.20;;;19.50;53.70;;;;;;5039263;28;20025;-64
2023/12/06 10:02:52;;;;;;;2.45;1.10;;;19.50;53.80;;;;;;5039579;28;20048;-65
2023/12/06 10:05:17;;;;;;;1.98;1.17;;;19.50;53.80;;;;;;5040433;28;20029;-65
2023/12/06 10:07:44;;;;;;;1.70;0.95;;;19.50;53.80;;;;;;5040027;28;20116;-64
2023/12/06 10:10:16;;;;;;;2.17;1.00;;;19.50;53.80;;;;;;5039814;28;20025;-65
2023/12/06 10:13:00;;;;;;;1.63;1.10;;;19.50;53.80;;;;;;5040793;28;20033;-65
2023/12/06 10:15:36;;;;;;;2.13;1.05;;;19.50;53.80;;;;;;5041025;28;20075;-64
2023/12/06 10:18:02;;;;;;;2.25;1.10;;;19.50;53.80;;;;;;5037557;28;20128;-64
2023/12/06 10:20:29;;;;;;;2.10;1.30;;;19.50;53.80;;;;;;5040839;28;20033;-64
2023/12/06 10:22:54;;;;;;;1.70;1.05;;;19.50;53.80;;;;;;5041698;28;20064;-64
2023/12/06 10:25:20;;;;;;;1.90;1.10;;;19.50;53.80;;;;;;5041956;28;20085;-64
2023/12/06 10:27:46;;;;;;;2.33;1.20;;;19.50;53.80;;;;;;5042101;28;20040;-66
2023/12/06 10:30:18;;;;;;;1.73;1.05;;;19.50;53.80;;;;;;5039465;28;20038;-66
2023/12/06 10:32:45;;;;;;;1.80;0.93;;;19.50;53.80;;;;;;5037849;28;20033;-66
2023/12/06 10:35:11;;;;;;;2.25;1.20;;;19.50;53.80;;;;;;5074015;28;20033;-66
2023/12/06 10:37:37;;;;;;;2.45;1.10;;;19.50;53.80;;;;;;5039483;28;20074;-64
2023/12/06 10:40:10;;;;;;;1.98;1.00;;;19.50;53.80;;;;;;5040707;28;20025;-64
2023/12/06 10:42:38;;;;;;;1.92;1.17;;;19.50;53.80;;;;;;5038418;28;20091;-64
2023/12/06 10:45:05;;;;;;;2.72;1.20;;;19.40;53.70;;;;;;5038981;28;20082;-65
2023/12/06 10:47:31;;;;;;;1.80;0.93;;;19.40;53.70;;;;;;5040790;28;20057;-64
2023/12/06 10:49:58;;;;;;;2.67;1.52;;;19.40;53.70;;;;;;5038307;28;20175;-65
2023/12/06 10:52:24;;;;;;;2.03;1.17;;;19.40;53.70;;;;;;5041841;28;20489;-65
2023/12/06 10:54:51;;;;;;;2.17;1.00;;;19.50;53.80;;;;;;5040605;28;20029;-65
2023/12/06 10:57:18;;;;;;;2.15;1.10;;;19.50;53.80;;;;;;5041206;28;20026;-64
2023/12/06 10:59:45;;;;;;;1.60;1.02;;;19.40;53.80;;;;;;5039650;28;20473;-65
2023/12/06 11:02:12;;;;;;;3.10;1.33;;;19.50;53.80;;;;;;5038897;28;20022;-65
2023/12/06 11:04:45;;;;;;;1.83;1.10;;;19.50;54.30;;;;;;5040147;28;20032;-64
2023/12/06 11:07:28;;;;;;;2.25;1.15;;;19.40;53.80;;;;;;5037818;28;20501;-64
2023/12/06 11:10:18;;;;;;;2.17;1.00;;;19.40;53.70;;;;;;5035653;28;20116;-65
2023/12/06 11:13:02;;;;;;;1.92;1.00;;;19.40;53.80;;;;;;5041637;28;20033;-65
2023/12/06 11:16:17;;;;;;;2.00;1.20;;;19.40;53.80;;;;;;5038851;28;20025;-64
2023/12/06 11:18:49;;;;;;;2.10;1.20;;;19.40;53.80;;;;;;5023305;28;20049;-64
2023/12/06 11:21:18;;;;;;;1.42;1.00;;;19.40;53.80;;;;;;5040445;28;20037;-65
2023/12/06 11:23:46;;;;;;;1.95;1.10;;;19.40;53.70;;;;;;5040575;28;20112;-64
2023/12/06 11:26:12;;;;;;;2.70;1.20;;;19.40;53.80;;;;;;5038583;28;20029;-64
2023/12/06 11:28:39;;;;;;;2.05;1.20;;;19.40;53.80;;;;;;5039067;28;20087;-64
2023/12/06 11:31:07;;;;;;;2.28;1.27;;;19.40;53.80;;;;;;5039381;28;20033;-64
2023/12/06 11:33:33;;;;;;;2.08;1.08;;;19.40;53.80;;;;;;5039532;28;20021;-65
2023/12/06 11:35:59;;;;;;;1.75;1.00;;;19.40;53.80;;;;;;5039916;28;20060;-64
2023/12/06 11:38:33;;;;;;;1.65;1.00;;;19.40;53.80;;;;;;5040744;28;20053;-65
2023/12/06 11:40:58;;;;;;;1.67;1.00;;;19.40;53.80;;;;;;5038979;28;20484;-64
2023/12/06 11:43:35;;;;;;;1.95;1.02;;;19.40;53.80;;;;;;5038813;28;20035;-64
2023/12/06 11:46:06;;;;;;;2.22;1.10;;;19.40;53.80;;;;;;5040686;28;20354;-64
2023/12/06 11:48:37;;;;;;;2.95;1.45;;;19.40;53.80;;;;;;5035133;28;20053;-64
2023/12/06 11:51:04;;;;;;;1.80;1.13;;;19.40;53.80;;;;;;5039976;28;20461;-64
2023/12/06 11:53:30;;;;;;;2.08;1.05;;;19.40;53.80;;;;;;5038403;28;20116;-64
2023/12/06 11:55:57;;;;;;;2.65;1.40;;;19.40;53.80;;;;;;5038584;28;20132;-64
2023/12/06 11:58:30;;;;;;;1.95;0.98;;;19.40;53.80;;;;;;5037386;28;20561;-64
2023/12/06 12:00:56;;;;;;;1.80;1.10;;;19.40;53.80;;;;;;5040964;28;20097;-65
2023/12/06 12:03:22;;;;;;;2.03;1.08;;;19.40;53.80;;;;;;5037339;28;20060;-64
2023/12/06 12:05:49;;;;;;;2.38;1.30;;;19.40;54.30;;;;;;5038096;28;20493;-65
2023/12/06 12:08:16;;;;;;;1.58;1.10;;;19.40;53.80;;;;;;5039140;28;20041;-65
2023/12/06 12:10:42;;;;;;;2.42;1.05;;;19.40;53.80;;;;;;5037989;28;20465;-66
2023/12/06 12:13:20;;;;;;;2.78;1.40;;;19.40;53.80;;;;;;5038427;28;20036;-64
2023/12/06 12:16:01;;;;;;;2.50;1.13;;;19.40;53.80;;;;;;5037615;28;20040;-64
2023/12/06 12:18:27;;;;;;;1.55;0.90;;;19.40;53.80;;;;;;5037621;28;20033;-65
2023/12/06 12:20:58;;;;;;;3.05;1.05;;;19.40;53.80;;;;;;5038008;28;20091;-64
2023/12/06 12:23:24;;;;;;;1.50;1.00;;;19.40;53.80;;;;;;5038911;28;20028;-64
2023/12/06 12:25:50;;;;;;;1.95;1.05;;;19.40;53.80;;;;;;5038749;28;20029;-64
2023/12/06 12:28:23;;;;;;;2.10;1.23;;;19.40;53.80;;;;;;5038704;28;20504;-64
2023/12/06 12:31:01;;;;;;;1.70;1.00;;;19.40;53.80;;;;;;5036947;28;20029;-64
2023/12/06 12:33:28;;;;;;;1.88;1.10;;;19.40;53.80;;;;;;5038640;28;20033;-64
2023/12/06 12:35:55;;;;;;;2.00;1.20;;;19.40;53.80;;;;;;5040132;28;20041;-64
2023/12/06 12:38:20;;;;;;;1.80;1.00;;;19.40;53.80;;;;;;5038823;28;20257;-64
2023/12/06 12:40:48;;;;;;;2.28;1.10;;;19.40;53.70;;;;;;5036500;28;20090;-64
2023/12/06 12:43:14;;;;;;;2.05;1.08;;;19.40;53.80;;;;;;5037570;28;20489;-64
2023/12/06 12:45:41;;;;;;;2.05;1.00;;;19.40;53.70;;;;;;5036980;28;20452;-65